sensor_id;sensor_type;location;lat;lon;timestamp;pressure;altitude;pressure_sealevel;temperature
72054;BMP280;59918;51.280;7.950;2023-04-09T00:01:10;98949.81;;;1.45
72054;BMP280;59918;51.280;7.950;2023-04-09T00:03:35;98952.47;;;1.44
72054;BMP280;59918;51.280;7.950;2023-04-09T00:06:01;98953.53;;;1.42
72054;BMP280;59918;51.280;7.950;2023-04-09T00:08:26;98955.38;;;1.40
72054;BMP280;59918;51.280;7.950;2023-04-09T00:10:52;98948.00;;;1.37
72054;BMP280;59918;51.280;7.950;2023-04-09T00:13:20;98945.44;;;1.37
72054;BMP280;59918;51.280;7.950;2023-04-09T00:15:46;98954.00;;;1.36
72054;BMP280;59918;51.280;7.950;2023-04-09T00:18:11;98951.69;;;1.33
72054;BMP280;59918;51.280;7.950;2023-04-09T00:20:36;98948.47;;;1.31
72054;BMP280;59918;51.280;7.950;2023-04-09T00:23:01;98942.72;;;1.29
72054;BMP280;59918;51.280;7.950;2023-04-09T00:25:27;98942.03;;;1.27
72054;BMP280;59918;51.280;7.950;2023-04-09T00:27:52;98946.41;;;1.25
72054;BMP280;59918;51.280;7.950;2023-04-09T00:30:20;98940.66;;;1.23
72054;BMP280;59918;51.280;7.950;2023-04-09T00:32:46;98938.00;;;1.24
72054;BMP280;59918;51.280;7.950;2023-04-09T00:35:11;98944.81;;;1.24
72054;BMP280;59918;51.280;7.950;2023-04-09T00:37:36;98944.94;;;1.22
72054;BMP280;59918;51.280;7.950;2023-04-09T00:40:01;98938.13;;;1.23
72054;BMP280;59918;51.280;7.950;2023-04-09T00:42:29;98936.38;;;1.23
72054;BMP280;59918;51.280;7.950;2023-04-09T00:44:58;98937.22;;;1.24
72054;BMP280;59918;51.280;7.950;2023-04-09T00:47:23;98938.91;;;1.23
72054;BMP280;59918;51.280;7.950;2023-04-09T00:49:48;98939.88;;;1.22
72054;BMP280;59918;51.280;7.950;2023-04-09T00:52:13;98934.00;;;1.22
72054;BMP280;59918;51.280;7.950;2023-04-09T00:54:38;98935.59;;;1.23
72054;BMP280;59918;51.280;7.950;2023-04-09T00:57:04;98936.28;;;1.25
72054;BMP280;59918;51.280;7.950;2023-04-09T00:59:29;98940.31;;;1.27
72054;BMP280;59918;51.280;7.950;2023-04-09T01:02:00;98939.28;;;1.30
72054;BMP280;59918;51.280;7.950;2023-04-09T01:04:25;98935.69;;;1.32
72054;BMP280;59918;51.280;7.950;2023-04-09T01:06:51;98937.53;;;1.30
72054;BMP280;59918;51.280;7.950;2023-04-09T01:09:20;98936.06;;;1.28
72054;BMP280;59918;51.280;7.950;2023-04-09T01:14:29;98939.88;;;1.22
72054;BMP280;59918;51.280;7.950;2023-04-09T01:17:02;98943.44;;;1.20
72054;BMP280;59918;51.280;7.950;2023-04-09T01:25:02;98946.69;;;1.11
72054;BMP280;59918;51.280;7.950;2023-04-09T01:27:29;98940.81;;;1.10
72054;BMP280;59918;51.280;7.950;2023-04-09T01:29:58;98940.13;;;1.08
72054;BMP280;59918;51.280;7.950;2023-04-09T01:32:24;98944.25;;;1.09
72054;BMP280;59918;51.280;7.950;2023-04-09T01:34:50;98942.56;;;1.10
72054;BMP280;59918;51.280;7.950;2023-04-09T01:37:16;98945.78;;;1.12
72054;BMP280;59918;51.280;7.950;2023-04-09T01:39:47;98941.63;;;1.11
72054;BMP280;59918;51.280;7.950;2023-04-09T01:42:12;98935.75;;;1.10
72054;BMP280;59918;51.280;7.950;2023-04-09T01:44:39;98931.72;;;1.08
72054;BMP280;59918;51.280;7.950;2023-04-09T01:47:05;98932.63;;;1.07
72054;BMP280;59918;51.280;7.950;2023-04-09T01:49:34;98944.50;;;1.07
72054;BMP280;59918;51.280;7.950;2023-04-09T01:51:59;98938.88;;;1.03
72054;BMP280;59918;51.280;7.950;2023-04-09T01:54:25;98931.53;;;1.00
72054;BMP280;59918;51.280;7.950;2023-04-09T01:56:50;98932.69;;;0.96
72054;BMP280;59918;51.280;7.950;2023-04-09T01:59:15;98930.38;;;0.93
72054;BMP280;59918;51.280;7.950;2023-04-09T02:01:47;98930.63;;;0.90
72054;BMP280;59918;51.280;7.950;2023-04-09T02:04:35;98934.75;;;0.91
72054;BMP280;59918;51.280;7.950;2023-04-09T02:07:05;98934.75;;;0.91
72054;BMP280;59918;51.280;7.950;2023-04-09T02:09:35;98937.84;;;0.95
72054;BMP280;59918;51.280;7.950;2023-04-09T02:12:02;98935.53;;;0.92
72054;BMP280;59918;51.280;7.950;2023-04-09T02:14:27;98932.69;;;0.85
72054;BMP280;59918;51.280;7.950;2023-04-09T02:16:53;98941.44;;;0.81
72054;BMP280;59918;51.280;7.950;2023-04-09T02:19:22;98938.22;;;0.79
72054;BMP280;59918;51.280;7.950;2023-04-09T02:21:47;98933.25;;;0.78
72054;BMP280;59918;51.280;7.950;2023-04-09T02:24:12;98942.38;;;0.80
72054;BMP280;59918;51.280;7.950;2023-04-09T02:26:37;98934.78;;;0.80
72054;BMP280;59918;51.280;7.950;2023-04-09T02:29:02;98933.94;;;0.80
72054;BMP280;59918;51.280;7.950;2023-04-09T02:31:27;98936.63;;;0.78
72054;BMP280;59918;51.280;7.950;2023-04-09T02:33:53;98926.59;;;0.77
72054;BMP280;59918;51.280;7.950;2023-04-09T02:36:18;98935.00;;;0.77
72054;BMP280;59918;51.280;7.950;2023-04-09T02:38:49;98935.00;;;0.77
72054;BMP280;59918;51.280;7.950;2023-04-09T02:41:14;98924.88;;;0.77
72054;BMP280;59918;51.280;7.950;2023-04-09T02:43:39;98931.78;;;0.75
72054;BMP280;59918;51.280;7.950;2023-04-09T02:46:06;98930.97;;;0.75
72054;BMP280;59918;51.280;7.950;2023-04-09T02:48:37;98923.50;;;0.73
72054;BMP280;59918;51.280;7.950;2023-04-09T02:51:05;98932.94;;;0.72
72054;BMP280;59918;51.280;7.950;2023-04-09T02:53:30;98928.81;;;0.71
72054;BMP280;59918;51.280;7.950;2023-04-09T02:55:58;98925.56;;;0.69
72054;BMP280;59918;51.280;7.950;2023-04-09T02:58:24;98918.88;;;0.68
72054;BMP280;59918;51.280;7.950;2023-04-09T03:00:49;98913.94;;;0.66
72054;BMP280;59918;51.280;7.950;2023-04-09T03:03:14;98916.59;;;0.65
72054;BMP280;59918;51.280;7.950;2023-04-09T03:05:39;98918.31;;;0.64
72054;BMP280;59918;51.280;7.950;2023-04-09T03:08:04;98916.81;;;0.62
72054;BMP280;59918;51.280;7.950;2023-04-09T03:10:29;98909.34;;;0.60
72054;BMP280;59918;51.280;7.950;2023-04-09T03:12:54;98909.34;;;0.60
72054;BMP280;59918;51.280;7.950;2023-04-09T03:15:23;98906.81;;;0.60
72054;BMP280;59918;51.280;7.950;2023-04-09T03:17:48;98907.59;;;0.61
72054;BMP280;59918;51.280;7.950;2023-04-09T03:20:13;98902.53;;;0.61
72054;BMP280;59918;51.280;7.950;2023-04-09T03:22:38;98903.38;;;0.61
72054;BMP280;59918;51.280;7.950;2023-04-09T03:25:04;98897.47;;;0.61
72054;BMP280;59918;51.280;7.950;2023-04-09T03:27:29;98894.16;;;0.60
72054;BMP280;59918;51.280;7.950;2023-04-09T03:29:54;98904.28;;;0.60
72054;BMP280;59918;51.280;7.950;2023-04-09T03:32:23;98900.16;;;0.59
72054;BMP280;59918;51.280;7.950;2023-04-09T03:34:48;98901.16;;;0.57
72054;BMP280;59918;51.280;7.950;2023-04-09T03:37:13;98897.94;;;0.55
72054;BMP280;59918;51.280;7.950;2023-04-09T03:39:39;98897.16;;;0.54
72054;BMP280;59918;51.280;7.950;2023-04-09T03:42:04;98892.88;;;0.55
72054;BMP280;59918;51.280;7.950;2023-04-09T03:44:29;98890.50;;;0.53
72054;BMP280;59918;51.280;7.950;2023-04-09T03:46:54;98892.34;;;0.51
72054;BMP280;59918;51.280;7.950;2023-04-09T03:49:19;98894.03;;;0.51
72054;BMP280;59918;51.280;7.950;2023-04-09T03:51:47;98884.84;;;0.50
72054;BMP280;59918;51.280;7.950;2023-04-09T03:54:12;98884.84;;;0.50
72054;BMP280;59918;51.280;7.950;2023-04-09T03:56:37;98881.50;;;0.49
72054;BMP280;59918;51.280;7.950;2023-04-09T03:59:03;98887.59;;;0.47
72054;BMP280;59918;51.280;7.950;2023-04-09T04:01:28;98887.59;;;0.47
72054;BMP280;59918;51.280;7.950;2023-04-09T04:03:53;98890.13;;;0.47
72054;BMP280;59918;51.280;7.950;2023-04-09T04:06:18;98881.84;;;0.45
72054;BMP280;59918;51.280;7.950;2023-04-09T04:08:43;98893.69;;;0.44
72054;BMP280;59918;51.280;7.950;2023-04-09T04:11:11;98896.34;;;0.43
72054;BMP280;59918;51.280;7.950;2023-04-09T04:13:37;98897.97;;;0.44
72054;BMP280;59918;51.280;7.950;2023-04-09T04:16:05;98894.38;;;0.46
72054;BMP280;59918;51.280;7.950;2023-04-09T04:18:30;98892.78;;;0.45
72054;BMP280;59918;51.280;7.950;2023-04-09T04:20:55;98889.44;;;0.45
72054;BMP280;59918;51.280;7.950;2023-04-09T04:23:24;98893.69;;;0.44
72054;BMP280;59918;51.280;7.950;2023-04-09T04:25:49;98904.75;;;0.43
72054;BMP280;59918;51.280;7.950;2023-04-09T04:28:14;98900.50;;;0.44
72054;BMP280;59918;51.280;7.950;2023-04-09T04:30:42;98892.91;;;0.44
72054;BMP280;59918;51.280;7.950;2023-04-09T04:33:07;98903.03;;;0.44
72054;BMP280;59918;51.280;7.950;2023-04-09T04:35:38;98901.28;;;0.44
72054;BMP280;59918;51.280;7.950;2023-04-09T04:38:03;98899.69;;;0.43
72054;BMP280;59918;51.280;7.950;2023-04-09T04:40:29;98901.41;;;0.43
72054;BMP280;59918;51.280;7.950;2023-04-09T04:42:54;98898.88;;;0.43
72054;BMP280;59918;51.280;7.950;2023-04-09T04:45:19;98902.22;;;0.43
72054;BMP280;59918;51.280;7.950;2023-04-09T04:47:50;98900.50;;;0.44
72054;BMP280;59918;51.280;7.950;2023-04-09T04:50:15;98902.09;;;0.45
72054;BMP280;59918;51.280;7.950;2023-04-09T04:52:40;98910.63;;;0.44
72054;BMP280;59918;51.280;7.950;2023-04-09T04:55:05;98912.47;;;0.42
72054;BMP280;59918;51.280;7.950;2023-04-09T04:57:31;98918.31;;;0.42
72054;BMP280;59918;51.280;7.950;2023-04-09T04:59:56;98911.66;;;0.41
72054;BMP280;59918;51.280;7.950;2023-04-09T05:02:24;98914.31;;;0.40
72054;BMP280;59918;51.280;7.950;2023-04-09T05:04:49;98910.03;;;0.40
72054;BMP280;59918;51.280;7.950;2023-04-09T05:07:14;98916.59;;;0.43
72054;BMP280;59918;51.280;7.950;2023-04-09T05:09:39;98916.59;;;0.43
72054;BMP280;59918;51.280;7.950;2023-04-09T05:12:04;98915.69;;;0.44
72054;BMP280;59918;51.280;7.950;2023-04-09T05:14:29;98913.84;;;0.46
72054;BMP280;59918;51.280;7.950;2023-04-09T05:16:54;98913.59;;;0.49
72054;BMP280;59918;51.280;7.950;2023-04-09T05:19:19;98908.41;;;0.50
72054;BMP280;59918;51.280;7.950;2023-04-09T05:21:48;98909.13;;;0.52
72054;BMP280;59918;51.280;7.950;2023-04-09T05:24:13;98905.44;;;0.56
72054;BMP280;59918;51.280;7.950;2023-04-09T05:26:38;98903.47;;;0.60
72054;BMP280;59918;51.280;7.950;2023-04-09T05:29:03;98905.06;;;0.61
72054;BMP280;59918;51.280;7.950;2023-04-09T05:31:28;98904.84;;;0.64
72054;BMP280;59918;51.280;7.950;2023-04-09T05:33:54;98905.53;;;0.66
72054;BMP280;59918;51.280;7.950;2023-04-09T05:36:26;98911.41;;;0.66
72054;BMP280;59918;51.280;7.950;2023-04-09T05:38:51;98902.78;;;0.69
72054;BMP280;59918;51.280;7.950;2023-04-09T05:41:16;98899.22;;;0.71
72054;BMP280;59918;51.280;7.950;2023-04-09T05:43:41;98899.78;;;0.74
72054;BMP280;59918;51.280;7.950;2023-04-09T05:46:07;98903.00;;;0.76
72054;BMP280;59918;51.280;7.950;2023-04-09T05:48:40;98901.03;;;0.80
72054;BMP280;59918;51.280;7.950;2023-04-09T05:51:06;98906.56;;;0.85
72054;BMP280;59918;51.280;7.950;2023-04-09T05:53:31;98904.47;;;0.90
72054;BMP280;59918;51.280;7.950;2023-04-09T05:55:59;98913.22;;;0.97
72054;BMP280;59918;51.280;7.950;2023-04-09T05:58:24;98909.84;;;1.07
72054;BMP280;59918;51.280;7.950;2023-04-09T06:00:49;98911.97;;;1.22
72054;BMP280;59918;51.280;7.950;2023-04-09T06:03:14;98905.72;;;1.37
72054;BMP280;59918;51.280;7.950;2023-04-09T06:05:40;98914.63;;;1.52
72054;BMP280;59918;51.280;7.950;2023-04-09T06:08:05;98912.38;;;1.69
72054;BMP280;59918;51.280;7.950;2023-04-09T06:10:39;98917.13;;;1.83
72054;BMP280;59918;51.280;7.950;2023-04-09T06:13:04;98915.91;;;1.98
72054;BMP280;59918;51.280;7.950;2023-04-09T06:15:29;98914.75;;;2.11
72054;BMP280;59918;51.280;7.950;2023-04-09T06:17:54;98917.66;;;2.27
72054;BMP280;59918;51.280;7.950;2023-04-09T06:20:19;98913.31;;;2.38
72054;BMP280;59918;51.280;7.950;2023-04-09T06:22:50;98911.72;;;2.47
72054;BMP280;59918;51.280;7.950;2023-04-09T06:25:15;98914.31;;;2.56
72054;BMP280;59918;51.280;7.950;2023-04-09T06:27:40;98914.13;;;2.68
72054;BMP280;59918;51.280;7.950;2023-04-09T06:30:06;98912.13;;;2.81
72054;BMP280;59918;51.280;7.950;2023-04-09T06:32:31;98907.47;;;2.95
72054;BMP280;59918;51.280;7.950;2023-04-09T06:35:00;98909.25;;;3.04
72054;BMP280;59918;51.280;7.950;2023-04-09T06:37:25;98913.28;;;3.16
72054;BMP280;59918;51.280;7.950;2023-04-09T06:39:50;98908.09;;;3.27
72054;BMP280;59918;51.280;7.950;2023-04-09T06:42:15;98908.75;;;3.38
72054;BMP280;59918;51.280;7.950;2023-04-09T06:44:40;98905.13;;;3.50
72054;BMP280;59918;51.280;7.950;2023-04-09T06:47:05;98914.22;;;3.62
72054;BMP280;59918;51.280;7.950;2023-04-09T06:49:30;98912.34;;;3.73
72054;BMP280;59918;51.280;7.950;2023-04-09T06:51:56;98913.69;;;3.87
72054;BMP280;59918;51.280;7.950;2023-04-09T06:54:27;98903.09;;;4.00
72054;BMP280;59918;51.280;7.950;2023-04-09T06:56:52;98910.81;;;4.18
72054;BMP280;59918;51.280;7.950;2023-04-09T06:59:17;98910.47;;;4.39
72054;BMP280;59918;51.280;7.950;2023-04-09T07:01:42;98910.25;;;4.60
72054;BMP280;59918;51.280;7.950;2023-04-09T07:04:07;98909.75;;;4.83
72054;BMP280;59918;51.280;7.950;2023-04-09T07:06:35;98901.84;;;5.03
72054;BMP280;59918;51.280;7.950;2023-04-09T07:09:00;98905.91;;;5.23
72054;BMP280;59918;51.280;7.950;2023-04-09T07:11:26;98901.31;;;5.43
72054;BMP280;59918;51.280;7.950;2023-04-09T07:13:51;98905.81;;;5.67
72054;BMP280;59918;51.280;7.950;2023-04-09T07:16:16;98902.97;;;5.87
72054;BMP280;59918;51.280;7.950;2023-04-09T07:18:41;98914.19;;;6.11
72054;BMP280;59918;51.280;7.950;2023-04-09T07:21:06;98901.56;;;6.35
72054;BMP280;59918;51.280;7.950;2023-04-09T07:23:37;98909.97;;;6.53
72054;BMP280;59918;51.280;7.950;2023-04-09T07:26:03;98902.69;;;6.73
72054;BMP280;59918;51.280;7.950;2023-04-09T07:28:28;98899.22;;;6.82
72054;BMP280;59918;51.280;7.950;2023-04-09T07:30:53;98898.47;;;6.90
72054;BMP280;59918;51.280;7.950;2023-04-09T07:33:19;98903.44;;;6.99
72054;BMP280;59918;51.280;7.950;2023-04-09T07:35:50;98898.66;;;7.12
72054;BMP280;59918;51.280;7.950;2023-04-09T07:38:15;98902.25;;;7.42
72054;BMP280;59918;51.280;7.950;2023-04-09T07:40:40;98895.53;;;7.65
72054;BMP280;59918;51.280;7.950;2023-04-09T07:43:05;98908.69;;;7.94
72054;BMP280;59918;51.280;7.950;2023-04-09T07:45:30;98904.28;;;8.41
72054;BMP280;59918;51.280;7.950;2023-04-09T07:48:01;98907.78;;;8.94
72054;BMP280;59918;51.280;7.950;2023-04-09T07:50:26;98896.81;;;9.38
72054;BMP280;59918;51.280;7.950;2023-04-09T07:52:52;98902.75;;;9.61
72054;BMP280;59918;51.280;7.950;2023-04-09T07:55:17;98900.28;;;9.89
72054;BMP280;59918;51.280;7.950;2023-04-09T07:57:42;98901.00;;;10.20
72054;BMP280;59918;51.280;7.950;2023-04-09T08:00:07;98902.00;;;10.48
72054;BMP280;59918;51.280;7.950;2023-04-09T08:02:36;98907.31;;;10.60
72054;BMP280;59918;51.280;7.950;2023-04-09T08:05:01;98900.31;;;10.40
72054;BMP280;59918;51.280;7.950;2023-04-09T08:07:26;98904.00;;;10.23
72054;BMP280;59918;51.280;7.950;2023-04-09T08:09:51;98902.59;;;10.21
72054;BMP280;59918;51.280;7.950;2023-04-09T08:12:16;98908.81;;;10.12
72054;BMP280;59918;51.280;7.950;2023-04-09T08:14:41;98912.00;;;9.92
72054;BMP280;59918;51.280;7.950;2023-04-09T08:17:07;98913.66;;;9.85
72054;BMP280;59918;51.280;7.950;2023-04-09T08:19:35;98915.13;;;10.02
72054;BMP280;59918;51.280;7.950;2023-04-09T08:22:00;98909.44;;;10.28
72054;BMP280;59918;51.280;7.950;2023-04-09T08:24:25;98917.34;;;10.56
72054;BMP280;59918;51.280;7.950;2023-04-09T08:26:50;98910.88;;;10.74
72054;BMP280;59918;51.280;7.950;2023-04-09T08:29:16;98905.59;;;10.96
72054;BMP280;59918;51.280;7.950;2023-04-09T08:31:41;98903.38;;;11.07
72054;BMP280;59918;51.280;7.950;2023-04-09T08:34:06;98901.75;;;11.21
72054;BMP280;59918;51.280;7.950;2023-04-09T08:36:40;98904.38;;;11.27
72054;BMP280;59918;51.280;7.950;2023-04-09T08:39:11;98901.25;;;11.46
72054;BMP280;59918;51.280;7.950;2023-04-09T08:41:38;98905.03;;;11.70
72054;BMP280;59918;51.280;7.950;2023-04-09T08:44:05;98896.34;;;11.71
72054;BMP280;59918;51.280;7.950;2023-04-09T08:46:30;98896.44;;;11.84
72054;BMP280;59918;51.280;7.950;2023-04-09T08:48:55;98899.41;;;12.02
72054;BMP280;59918;51.280;7.950;2023-04-09T08:51:23;98893.72;;;12.13
72054;BMP280;59918;51.280;7.950;2023-04-09T08:53:51;98886.28;;;12.24
72054;BMP280;59918;51.280;7.950;2023-04-09T08:56:19;98886.47;;;12.29
72054;BMP280;59918;51.280;7.950;2023-04-09T08:58:47;98883.16;;;12.35
72054;BMP280;59918;51.280;7.950;2023-04-09T09:04:00;98890.31;;;12.06
72054;BMP280;59918;51.280;7.950;2023-04-09T09:06:27;98885.66;;;11.95
72054;BMP280;59918;51.280;7.950;2023-04-09T09:11:38;98882.94;;;12.03
72054;BMP280;59918;51.280;7.950;2023-04-09T09:14:04;98892.63;;;12.01
72054;BMP280;59918;51.280;7.950;2023-04-09T09:16:30;98886.50;;;12.02
72054;BMP280;59918;51.280;7.950;2023-04-09T09:18:55;98889.59;;;12.18
72054;BMP280;59918;51.280;7.950;2023-04-09T09:21:24;98885.53;;;12.70
72054;BMP280;59918;51.280;7.950;2023-04-09T09:23:49;98897.88;;;12.75
72054;BMP280;59918;51.280;7.950;2023-04-09T09:26:15;98890.06;;;12.62
72054;BMP280;59918;51.280;7.950;2023-04-09T09:28:41;98898.44;;;12.70
72054;BMP280;59918;51.280;7.950;2023-04-09T09:31:07;98888.66;;;12.93
72054;BMP280;59918;51.280;7.950;2023-04-09T09:33:36;98885.91;;;13.01
72054;BMP280;59918;51.280;7.950;2023-04-09T09:36:01;98891.06;;;12.94
72054;BMP280;59918;51.280;7.950;2023-04-09T09:38:26;98895.63;;;12.92
72054;BMP280;59918;51.280;7.950;2023-04-09T09:40:51;98892.91;;;12.73
72054;BMP280;59918;51.280;7.950;2023-04-09T09:43:17;98895.28;;;12.41
72054;BMP280;59918;51.280;7.950;2023-04-09T09:45:42;98893.91;;;12.38
72054;BMP280;59918;51.280;7.950;2023-04-09T09:48:09;98892.22;;;12.58
72054;BMP280;59918;51.280;7.950;2023-04-09T09:50:36;98889.44;;;12.87
72054;BMP280;59918;51.280;7.950;2023-04-09T09:53:05;98879.75;;;13.02
72054;BMP280;59918;51.280;7.950;2023-04-09T09:55:31;98884.44;;;13.38
72054;BMP280;59918;51.280;7.950;2023-04-09T09:57:57;98877.88;;;13.29
72054;BMP280;59918;51.280;7.950;2023-04-09T10:00:24;98882.84;;;13.37
72054;BMP280;59918;51.280;7.950;2023-04-09T10:02:58;98891.25;;;13.78
72054;BMP280;59918;51.280;7.950;2023-04-09T10:05:26;98886.72;;;14.12
72054;BMP280;59918;51.280;7.950;2023-04-09T10:07:56;98888.88;;;14.34
72054;BMP280;59918;51.280;7.950;2023-04-09T10:10:24;98883.75;;;14.08
72054;BMP280;59918;51.280;7.950;2023-04-09T10:12:50;98877.13;;;14.25
72054;BMP280;59918;51.280;7.950;2023-04-09T10:15:15;98885.63;;;14.70
72054;BMP280;59918;51.280;7.950;2023-04-09T10:17:41;98867.75;;;15.06
72054;BMP280;59918;51.280;7.950;2023-04-09T10:20:08;98875.50;;;14.62
72054;BMP280;59918;51.280;7.950;2023-04-09T10:22:37;98873.72;;;14.57
72054;BMP280;59918;51.280;7.950;2023-04-09T10:25:05;98871.72;;;14.59
72054;BMP280;59918;51.280;7.950;2023-04-09T10:27:31;98862.50;;;14.75
72054;BMP280;59918;51.280;7.950;2023-04-09T10:29:56;98866.63;;;15.32
72054;BMP280;59918;51.280;7.950;2023-04-09T10:32:24;98873.25;;;15.59
72054;BMP280;59918;51.280;7.950;2023-04-09T10:34:49;98871.06;;;15.56
72054;BMP280;59918;51.280;7.950;2023-04-09T10:37:15;98864.44;;;15.67
72054;BMP280;59918;51.280;7.950;2023-04-09T10:39:50;98858.84;;;17.07
72054;BMP280;59918;51.280;7.950;2023-04-09T10:42:19;98851.06;;;18.67
72054;BMP280;59918;51.280;7.950;2023-04-09T10:45:02;98833.16;;;20.13
72054;BMP280;59918;51.280;7.950;2023-04-09T10:47:31;98831.13;;;19.99
72054;BMP280;59918;51.280;7.950;2023-04-09T10:52:40;98833.00;;;18.38
72054;BMP280;59918;51.280;7.950;2023-04-09T10:55:05;98823.28;;;18.84
72054;BMP280;59918;51.280;7.950;2023-04-09T10:57:31;98825.47;;;21.03
72054;BMP280;59918;51.280;7.950;2023-04-09T11:00:02;98819.97;;;21.88
72054;BMP280;59918;51.280;7.950;2023-04-09T11:05:00;98834.56;;;19.72
72054;BMP280;59918;51.280;7.950;2023-04-09T11:07:28;98829.47;;;18.94
72054;BMP280;59918;51.280;7.950;2023-04-09T11:09:54;98833.81;;;18.27
72054;BMP280;59918;51.280;7.950;2023-04-09T11:12:19;98827.28;;;17.61
72054;BMP280;59918;51.280;7.950;2023-04-09T11:14:50;98827.50;;;17.49
72054;BMP280;59918;51.280;7.950;2023-04-09T11:17:15;98832.63;;;17.66
72054;BMP280;59918;51.280;7.950;2023-04-09T11:19:40;98817.59;;;17.28
72054;BMP280;59918;51.280;7.950;2023-04-09T11:22:06;98818.06;;;16.89
72054;BMP280;59918;51.280;7.950;2023-04-09T11:24:42;98813.94;;;16.71
72054;BMP280;59918;51.280;7.950;2023-04-09T11:27:07;98809.63;;;16.65
72054;BMP280;59918;51.280;7.950;2023-04-09T11:29:36;98825.47;;;16.75
72054;BMP280;59918;51.280;7.950;2023-04-09T11:32:01;98817.81;;;16.79
72054;BMP280;59918;51.280;7.950;2023-04-09T11:34:27;98799.91;;;18.89
72054;BMP280;59918;51.280;7.950;2023-04-09T11:36:52;98795.84;;;19.20
72054;BMP280;59918;51.280;7.950;2023-04-09T11:39:17;98799.03;;;18.83
72054;BMP280;59918;51.280;7.950;2023-04-09T11:41:42;98804.03;;;18.34
72054;BMP280;59918;51.280;7.950;2023-04-09T11:44:07;98809.53;;;17.81
72054;BMP280;59918;51.280;7.950;2023-04-09T11:46:37;98810.25;;;17.25
72054;BMP280;59918;51.280;7.950;2023-04-09T11:49:02;98808.25;;;17.50
72054;BMP280;59918;51.280;7.950;2023-04-09T11:51:28;98807.69;;;17.48
72054;BMP280;59918;51.280;7.950;2023-04-09T11:53:53;98802.59;;;20.14
72054;BMP280;59918;51.280;7.950;2023-04-09T11:56:18;98803.25;;;19.72
72054;BMP280;59918;51.280;7.950;2023-04-09T11:58:44;98809.53;;;18.49
72054;BMP280;59918;51.280;7.950;2023-04-09T12:01:13;98812.25;;;17.63
72054;BMP280;59918;51.280;7.950;2023-04-09T12:03:38;98805.50;;;17.04
72054;BMP280;59918;51.280;7.950;2023-04-09T12:06:04;98809.75;;;16.70
72054;BMP280;59918;51.280;7.950;2023-04-09T12:08:29;98807.72;;;16.36
72054;BMP280;59918;51.280;7.950;2023-04-09T12:10:54;98805.72;;;16.20
72054;BMP280;59918;51.280;7.950;2023-04-09T12:13:20;98806.00;;;16.48
72054;BMP280;59918;51.280;7.950;2023-04-09T12:15:47;98806.50;;;16.74
72054;BMP280;59918;51.280;7.950;2023-04-09T12:18:12;98812.59;;;17.15
72054;BMP280;59918;51.280;7.950;2023-04-09T12:20:41;98794.34;;;17.33
72054;BMP280;59918;51.280;7.950;2023-04-09T12:23:07;98804.03;;;17.08
72054;BMP280;59918;51.280;7.950;2023-04-09T12:25:33;98800.66;;;16.79
72054;BMP280;59918;51.280;7.950;2023-04-09T12:27:58;98800.66;;;16.61
72054;BMP280;59918;51.280;7.950;2023-04-09T12:30:24;98795.78;;;16.35
72054;BMP280;59918;51.280;7.950;2023-04-09T12:32:49;98789.44;;;16.07
72054;BMP280;59918;51.280;7.950;2023-04-09T12:35:17;98800.13;;;15.75
72054;BMP280;59918;51.280;7.950;2023-04-09T12:37:43;98797.69;;;15.56
72054;BMP280;59918;51.280;7.950;2023-04-09T12:40:08;98796.97;;;15.49
72054;BMP280;59918;51.280;7.950;2023-04-09T12:42:33;98796.91;;;15.55
72054;BMP280;59918;51.280;7.950;2023-04-09T12:44:59;98794.13;;;15.50
72054;BMP280;59918;51.280;7.950;2023-04-09T12:47:24;98801.50;;;15.53
72054;BMP280;59918;51.280;7.950;2023-04-09T12:49:49;98791.22;;;15.40
72054;BMP280;59918;51.280;7.950;2023-04-09T12:52:17;98784.03;;;15.42
72054;BMP280;59918;51.280;7.950;2023-04-09T12:54:42;98779.53;;;15.56
72054;BMP280;59918;51.280;7.950;2023-04-09T12:57:07;98781.09;;;15.32
72054;BMP280;59918;51.280;7.950;2023-04-09T12:59:32;98789.59;;;15.09
72054;BMP280;59918;51.280;7.950;2023-04-09T13:01:57;98790.25;;;15.04
72054;BMP280;59918;51.280;7.950;2023-04-09T13:04:22;98793.56;;;15.11
72054;BMP280;59918;51.280;7.950;2023-04-09T13:06:48;98783.19;;;15.11
72054;BMP280;59918;51.280;7.950;2023-04-09T13:09:22;98789.31;;;15.30
72054;BMP280;59918;51.280;7.950;2023-04-09T13:11:47;98779.53;;;15.56
72054;BMP280;59918;51.280;7.950;2023-04-09T13:14:12;98775.25;;;15.92
72054;BMP280;59918;51.280;7.950;2023-04-09T13:16:40;98772.09;;;16.07
72054;BMP280;59918;51.280;7.950;2023-04-09T13:19:06;98777.78;;;16.16
72054;BMP280;59918;51.280;7.950;2023-04-09T13:21:35;98774.16;;;16.23
72054;BMP280;59918;51.280;7.950;2023-04-09T13:24:01;98772.88;;;16.08
72054;BMP280;59918;51.280;7.950;2023-04-09T13:26:30;98774.41;;;15.73
72054;BMP280;59918;51.280;7.950;2023-04-09T13:28:55;98771.66;;;15.44
72054;BMP280;59918;51.280;7.950;2023-04-09T13:31:21;98778.22;;;15.16
72054;BMP280;59918;51.280;7.950;2023-04-09T13:33:46;98780.53;;;14.94
72054;BMP280;59918;51.280;7.950;2023-04-09T13:36:11;98777.72;;;14.95
72054;BMP280;59918;51.280;7.950;2023-04-09T13:38:36;98773.78;;;14.93
72054;BMP280;59918;51.280;7.950;2023-04-09T13:41:07;98779.50;;;15.01
72054;BMP280;59918;51.280;7.950;2023-04-09T13:43:32;98770.25;;;15.11
72054;BMP280;59918;51.280;7.950;2023-04-09T13:45:57;98773.66;;;15.12
72054;BMP280;59918;51.280;7.950;2023-04-09T13:48:22;98775.44;;;15.11
72054;BMP280;59918;51.280;7.950;2023-04-09T13:50:48;98769.56;;;15.29
72054;BMP280;59918;51.280;7.950;2023-04-09T13:53:13;98763.50;;;15.65
72054;BMP280;59918;51.280;7.950;2023-04-09T13:55:42;98756.94;;;17.45
72054;BMP280;59918;51.280;7.950;2023-04-09T13:58:07;98735.41;;;20.68
72054;BMP280;59918;51.280;7.950;2023-04-09T14:00:32;98737.38;;;21.71
72054;BMP280;59918;51.280;7.950;2023-04-09T14:02:57;98722.81;;;23.50
72054;BMP280;59918;51.280;7.950;2023-04-09T14:05:22;98704.19;;;24.49
72054;BMP280;59918;51.280;7.950;2023-04-09T14:07:48;98715.91;;;24.09
72054;BMP280;59918;51.280;7.950;2023-04-09T14:10:13;98723.22;;;24.26
72054;BMP280;59918;51.280;7.950;2023-04-09T14:12:41;98713.88;;;23.46
72054;BMP280;59918;51.280;7.950;2023-04-09T14:15:06;98724.13;;;22.33
72054;BMP280;59918;51.280;7.950;2023-04-09T14:17:32;98699.66;;;25.07
72054;BMP280;59918;51.280;7.950;2023-04-09T14:19:57;98700.06;;;25.80
72054;BMP280;59918;51.280;7.950;2023-04-09T14:22:22;98706.84;;;24.39
72054;BMP280;59918;51.280;7.950;2023-04-09T14:24:47;98723.84;;;22.95
72054;BMP280;59918;51.280;7.950;2023-04-09T14:27:12;98725.69;;;21.47
72054;BMP280;59918;51.280;7.950;2023-04-09T14:29:37;98718.50;;;20.54